sensor_id;sensor_type;location;lat;lon;timestamp;pressure;altitude;pressure_sealevel;temperature;humidity
30744;BME280;17486;46.738;7.622;2023-02-20T00:00:33;58933.41;;;-148.81;100.00
30744;BME280;17486;46.738;7.622;2023-02-20T00:02:59;58933.41;;;-148.81;100.00
30744;BME280;17486;46.738;7.622;2023-02-20T00:05:24;58933.41;;;-148.81;100.00
30744;BME280;17486;46.738;7.622;2023-02-20T00:07:50;58933.41;;;-148.81;100.00
30744;BME280;17486;46.738;7.622;2023-02-20T00:10:16;58933.41;;;-148.81;100.00
30744;BME280;17486;46.738;7.622;2023-02-20T00:12:42;58933.41;;;-148.81;100.00
30744;BME280;17486;46.738;7.622;2023-02-20T00:15:08;58933.41;;;-148.81;100.00
30744;BME280;17486;46.738;7.622;2023-02-20T00:17:33;58933.41;;;-148.81;100.00
30744;BME280;17486;46.738;7.622;2023-02-20T00:20:00;58933.41;;;-148.81;100.00
30744;BME280;17486;46.738;7.622;2023-02-20T00:22:26;58933.41;;;-148.81;100.00
30744;BME280;17486;46.738;7.622;2023-02-20T00:24:52;58933.41;;;-148.81;100.00
30744;BME280;17486;46.738;7.622;2023-02-20T00:27:18;58933.41;;;-148.81;100.00
30744;BME280;17486;46.738;7.622;2023-02-20T00:29:44;58933.41;;;-148.81;100.00
30744;BME280;17486;46.738;7.622;2023-02-20T00:32:10;58933.41;;;-148.81;100.00
30744;BME280;17486;46.738;7.622;2023-02-20T00:34:35;58933.41;;;-148.81;100.00
30744;BME280;17486;46.738;7.622;2023-02-20T00:37:01;58933.41;;;-148.81;100.00
30744;BME280;17486;46.738;7.622;2023-02-20T00:39:26;58933.41;;;-148.81;100.00
30744;BME280;17486;46.738;7.622;2023-02-20T00:41:52;58933.41;;;-148.81;100.00
30744;BME280;17486;46.738;7.622;2023-02-20T00:44:17;58933.41;;;-148.81;100.00
30744;BME280;17486;46.738;7.622;2023-02-20T00:46:42;58933.41;;;-148.81;100.00
30744;BME280;17486;46.738;7.622;2023-02-20T00:49:08;58933.41;;;-148.81;100.00
30744;BME280;17486;46.738;7.622;2023-02-20T00:51:33;58933.41;;;-148.81;100.00
30744;BME280;17486;46.738;7.622;2023-02-20T00:54:00;58933.41;;;-148.81;100.00
30744;BME280;17486;46.738;7.622;2023-02-20T00:56:26;58933.41;;;-148.81;100.00
30744;BME280;17486;46.738;7.622;2023-02-20T00:58:51;58933.41;;;-148.81;100.00
30744;BME280;17486;46.738;7.622;2023-02-20T01:01:17;58933.41;;;-148.81;100.00
30744;BME280;17486;46.738;7.622;2023-02-20T01:03:42;58933.41;;;-148.81;100.00
30744;BME280;17486;46.738;7.622;2023-02-20T01:06:08;58933.41;;;-148.81;100.00
30744;BME280;17486;46.738;7.622;2023-02-20T01:08:34;58933.41;;;-148.81;100.00
30744;BME280;17486;46.738;7.622;2023-02-20T01:10:59;58933.41;;;-148.81;100.00
30744;BME280;17486;46.738;7.622;2023-02-20T01:13:25;58933.41;;;-148.81;100.00
30744;BME280;17486;46.738;7.622;2023-02-20T01:15:50;58933.41;;;-148.81;100.00
30744;BME280;17486;46.738;7.622;2023-02-20T01:18:16;58933.41;;;-148.81;100.00
30744;BME280;17486;46.738;7.622;2023-02-20T01:20:41;58933.41;;;-148.81;100.00
30744;BME280;17486;46.738;7.622;2023-02-20T01:23:07;58933.41;;;-148.81;100.00
30744;BME280;17486;46.738;7.622;2023-02-20T01:25:32;58933.41;;;-148.81;100.00
30744;BME280;17486;46.738;7.622;2023-02-20T01:27:57;58933.41;;;-148.81;100.00
30744;BME280;17486;46.738;7.622;2023-02-20T01:30:23;58933.41;;;-148.81;100.00
30744;BME280;17486;46.738;7.622;2023-02-20T01:32:48;58933.41;;;-148.81;100.00
30744;BME280;17486;46.738;7.622;2023-02-20T01:35:14;58933.41;;;-148.81;100.00
30744;BME280;17486;46.738;7.622;2023-02-20T01:37:40;58933.41;;;-148.81;100.00
30744;BME280;17486;46.738;7.622;2023-02-20T01:40:06;58933.41;;;-148.81;100.00
30744;BME280;17486;46.738;7.622;2023-02-20T01:42:33;58933.41;;;-148.81;100.00
30744;BME280;17486;46.738;7.622;2023-02-20T01:47:46;58933.41;;;-148.81;100.00
30744;BME280;17486;46.738;7.622;2023-02-20T01:50:12;58933.41;;;-148.81;100.00
30744;BME280;17486;46.738;7.622;2023-02-20T01:52:40;58933.41;;;-148.81;100.00
30744;BME280;17486;46.738;7.622;2023-02-20T01:55:23;58933.41;;;-148.81;100.00
30744;BME280;17486;46.738;7.622;2023-02-20T01:58:00;58933.41;;;-148.81;100.00
30744;BME280;17486;46.738;7.622;2023-02-20T02:00:27;58933.41;;;-148.81;100.00
30744;BME280;17486;46.738;7.622;2023-02-20T02:02:57;58933.41;;;-148.81;100.00
30744;BME280;17486;46.738;7.622;2023-02-20T02:05:24;58933.41;;;-148.81;100.00
30744;BME280;17486;46.738;7.622;2023-02-20T02:07:50;58933.41;;;-148.81;100.00
30744;BME280;17486;46.738;7.622;2023-02-20T02:10:20;58933.41;;;-148.81;100.00
30744;BME280;17486;46.738;7.622;2023-02-20T02:12:50;58933.41;;;-148.81;100.00
30744;BME280;17486;46.738;7.622;2023-02-20T02:15:20;58933.41;;;-148.81;100.00
30744;BME280;17486;46.738;7.622;2023-02-20T02:23:42;58933.41;;;-148.81;100.00
30744;BME280;17486;46.738;7.622;2023-02-20T02:32:25;58933.41;;;-148.81;100.00
30744;BME280;17486;46.738;7.622;2023-02-20T02:37:47;58933.41;;;-148.81;100.00
30744;BME280;17486;46.738;7.622;2023-02-20T02:42:54;58933.41;;;-148.81;100.00
30744;BME280;17486;46.738;7.622;2023-02-20T02:48:01;58933.41;;;-148.81;100.00
30744;BME280;17486;46.738;7.622;2023-02-20T02:50:36;58933.41;;;-148.81;100.00
30744;BME280;17486;46.738;7.622;2023-02-20T02:53:04;58933.41;;;-148.81;100.00
30744;BME280;17486;46.738;7.622;2023-02-20T02:55:32;58933.41;;;-148.81;100.00
30744;BME280;17486;46.738;7.622;2023-02-20T02:58:01;58933.41;;;-148.81;100.00
30744;BME280;17486;46.738;7.622;2023-02-20T03:00:37;58933.41;;;-148.81;100.00
30744;BME280;17486;46.738;7.622;2023-02-20T03:03:11;58933.41;;;-148.81;100.00
30744;BME280;17486;46.738;7.622;2023-02-20T03:08:36;58933.41;;;-148.81;100.00
30744;BME280;17486;46.738;7.622;2023-02-20T03:11:17;58933.41;;;-148.81;100.00
30744;BME280;17486;46.738;7.622;2023-02-20T03:13:51;58933.41;;;-148.81;100.00
30744;BME280;17486;46.738;7.622;2023-02-20T03:19:29;58933.41;;;-148.81;100.00
30744;BME280;17486;46.738;7.622;2023-02-20T03:21:57;58933.41;;;-148.81;100.00
30744;BME280;17486;46.738;7.622;2023-02-20T03:24:25;58933.41;;;-148.81;100.00
30744;BME280;17486;46.738;7.622;2023-02-20T03:26:54;58933.41;;;-148.81;100.00
30744;BME280;17486;46.738;7.622;2023-02-20T03:29:25;58933.41;;;-148.81;100.00
30744;BME280;17486;46.738;7.622;2023-02-20T03:32:10;58933.41;;;-148.81;100.00
30744;BME280;17486;46.738;7.622;2023-02-20T03:34:56;58933.41;;;-148.81;100.00
30744;BME280;17486;46.738;7.622;2023-02-20T03:37:41;58933.41;;;-148.81;100.00
30744;BME280;17486;46.738;7.622;2023-02-20T03:40:28;58933.41;;;-148.81;100.00
30744;BME280;17486;46.738;7.622;2023-02-20T03:43:16;58933.41;;;-148.81;100.00
30744;BME280;17486;46.738;7.622;2023-02-20T03:45:59;58933.41;;;-148.81;100.00
30744;BME280;17486;46.738;7.622;2023-02-20T03:51:09;58933.41;;;-148.81;100.00
30744;BME280;17486;46.738;7.622;2023-02-20T03:53:53;58933.41;;;-148.81;100.00
30744;BME280;17486;46.738;7.622;2023-02-20T03:56:24;58933.41;;;-148.81;100.00
30744;BME280;17486;46.738;7.622;2023-02-20T03:58:59;58933.41;;;-148.81;100.00
30744;BME280;17486;46.738;7.622;2023-02-20T04:01:27;58933.41;;;-148.81;100.00
30744;BME280;17486;46.738;7.622;2023-02-20T04:03:54;58933.41;;;-148.81;100.00
30744;BME280;17486;46.738;7.622;2023-02-20T04:06:22;58933.41;;;-148.81;100.00
30744;BME280;17486;46.738;7.622;2023-02-20T04:08:55;58933.41;;;-148.81;100.00
30744;BME280;17486;46.738;7.622;2023-02-20T04:11:27;58933.41;;;-148.81;100.00
30744;BME280;17486;46.738;7.622;2023-02-20T04:13:54;58933.41;;;-148.81;100.00
30744;BME280;17486;46.738;7.622;2023-02-20T04:16:21;58933.41;;;-148.81;100.00
30744;BME280;17486;46.738;7.622;2023-02-20T04:18:47;58933.41;;;-148.81;100.00
30744;BME280;17486;46.738;7.622;2023-02-20T04:21:21;58933.41;;;-148.81;100.00
30744;BME280;17486;46.738;7.622;2023-02-20T04:24:00;58933.41;;;-148.81;100.00
30744;BME280;17486;46.738;7.622;2023-02-20T04:26:27;58933.41;;;-148.81;100.00
30744;BME280;17486;46.738;7.622;2023-02-20T04:28:52;58933.41;;;-148.81;100.00
30744;BME280;17486;46.738;7.622;2023-02-20T04:31:19;58933.41;;;-148.81;100.00
30744;BME280;17486;46.738;7.622;2023-02-20T04:33:45;58933.41;;;-148.81;100.00
30744;BME280;17486;46.738;7.622;2023-02-20T04:36:11;58933.41;;;-148.81;100.00
30744;BME280;17486;46.738;7.622;2023-02-20T04:38:36;58933.41;;;-148.81;100.00
30744;BME280;17486;46.738;7.622;2023-02-20T04:41:02;58933.41;;;-148.81;100.00
30744;BME280;17486;46.738;7.622;2023-02-20T04:43:27;58933.41;;;-148.81;100.00
30744;BME280;17486;46.738;7.622;2023-02-20T04:45:52;58933.41;;;-148.81;100.00
30744;BME280;17486;46.738;7.622;2023-02-20T04:48:18;58933.41;;;-148.81;100.00
30744;BME280;17486;46.738;7.622;2023-02-20T04:50:43;58933.41;;;-148.81;100.00
30744;BME280;17486;46.738;7.622;2023-02-20T04:53:09;58933.41;;;-148.81;100.00
30744;BME280;17486;46.738;7.622;2023-02-20T04:55:34;58933.41;;;-148.81;100.00
30744;BME280;17486;46.738;7.622;2023-02-20T04:58:00;58933.41;;;-148.81;100.00
30744;BME280;17486;46.738;7.622;2023-02-20T05:00:25;58933.41;;;-148.81;100.00
30744;BME280;17486;46.738;7.622;2023-02-20T05:02:51;58933.41;;;-148.81;100.00
30744;BME280;17486;46.738;7.622;2023-02-20T05:05:20;58933.41;;;-148.81;100.00
30744;BME280;17486;46.738;7.622;2023-02-20T05:07:46;58933.41;;;-148.81;100.00
30744;BME280;17486;46.738;7.622;2023-02-20T05:10:16;58933.41;;;-148.81;100.00
30744;BME280;17486;46.738;7.622;2023-02-20T05:12:42;58933.41;;;-148.81;100.00
30744;BME280;17486;46.738;7.622;2023-02-20T05:15:08;58933.41;;;-148.81;100.00
30744;BME280;17486;46.738;7.622;2023-02-20T05:17:34;58933.41;;;-148.81;100.00
30744;BME280;17486;46.738;7.622;2023-02-20T05:19:59;58933.41;;;-148.81;100.00
30744;BME280;17486;46.738;7.622;2023-02-20T05:22:25;58933.41;;;-148.81;100.00
30744;BME280;17486;46.738;7.622;2023-02-20T05:24:50;58933.41;;;-148.81;100.00
30744;BME280;17486;46.738;7.622;2023-02-20T05:27:18;58933.41;;;-148.81;100.00
30744;BME280;17486;46.738;7.622;2023-02-20T05:29:52;58933.41;;;-148.81;100.00
30744;BME280;17486;46.738;7.622;2023-02-20T05:32:19;58933.41;;;-148.81;100.00
30744;BME280;17486;46.738;7.622;2023-02-20T05:34:44;58933.41;;;-148.81;100.00
30744;BME280;17486;46.738;7.622;2023-02-20T05:37:12;58933.41;;;-148.81;100.00
30744;BME280;17486;46.738;7.622;2023-02-20T05:39:38;58933.41;;;-148.81;100.00
30744;BME280;17486;46.738;7.622;2023-02-20T05:42:07;58933.41;;;-148.81;100.00
30744;BME280;17486;46.738;7.622;2023-02-20T05:44:33;58933.41;;;-148.81;100.00
30744;BME280;17486;46.738;7.622;2023-02-20T05:46:59;58933.41;;;-148.81;100.00
30744;BME280;17486;46.738;7.622;2023-02-20T05:49:25;58933.41;;;-148.81;100.00
30744;BME280;17486;46.738;7.622;2023-02-20T05:51:51;58933.41;;;-148.81;100.00
30744;BME280;17486;46.738;7.622;2023-02-20T05:54:18;58933.41;;;-148.81;100.00
30744;BME280;17486;46.738;7.622;2023-02-20T05:56:44;58933.41;;;-148.81;100.00
30744;BME280;17486;46.738;7.622;2023-02-20T05:59:10;58933.41;;;-148.81;100.00
30744;BME280;17486;46.738;7.622;2023-02-20T06:01:35;58933.41;;;-148.81;100.00
30744;BME280;17486;46.738;7.622;2023-02-20T06:04:01;58933.41;;;-148.81;100.00
30744;BME280;17486;46.738;7.622;2023-02-20T06:06:38;58933.41;;;-148.81;100.00
30744;BME280;17486;46.738;7.622;2023-02-20T06:09:05;58933.41;;;-148.81;100.00
30744;BME280;17486;46.738;7.622;2023-02-20T06:11:40;58933.41;;;-148.81;100.00
30744;BME280;17486;46.738;7.622;2023-02-20T06:14:06;58933.41;;;-148.81;100.00
30744;BME280;17486;46.738;7.622;2023-02-20T06:16:33;58933.41;;;-148.81;100.00
30744;BME280;17486;46.738;7.622;2023-02-20T06:18:58;58933.41;;;-148.81;100.00
30744;BME280;17486;46.738;7.622;2023-02-20T06:21:25;58933.41;;;-148.81;100.00
30744;BME280;17486;46.738;7.622;2023-02-20T06:23:52;58933.41;;;-148.81;100.00
30744;BME280;17486;46.738;7.622;2023-02-20T06:26:18;58933.41;;;-148.81;100.00
30744;BME280;17486;46.738;7.622;2023-02-20T06:28:44;58933.41;;;-148.81;100.00
30744;BME280;17486;46.738;7.622;2023-02-20T06:31:10;58933.41;;;-148.81;100.00
30744;BME280;17486;46.738;7.622;2023-02-20T06:33:36;58933.41;;;-148.81;100.00
30744;BME280;17486;46.738;7.622;2023-02-20T06:36:03;58933.41;;;-148.81;100.00
30744;BME280;17486;46.738;7.622;2023-02-20T06:38:29;58933.41;;;-148.81;100.00
30744;BME280;17486;46.738;7.622;2023-02-20T06:40:55;58933.41;;;-148.81;100.00
30744;BME280;17486;46.738;7.622;2023-02-20T06:43:20;58933.41;;;-148.81;100.00
30744;BME280;17486;46.738;7.622;2023-02-20T06:45:46;58933.41;;;-148.81;100.00
30744;BME280;17486;46.738;7.622;2023-02-20T06:48:13;58933.41;;;-148.81;100.00
30744;BME280;17486;46.738;7.622;2023-02-20T06:50:40;58933.41;;;-148.81;100.00
30744;BME280;17486;46.738;7.622;2023-02-20T06:53:06;58933.41;;;-148.81;100.00
30744;BME280;17486;46.738;7.622;2023-02-20T06:55:32;58933.41;;;-148.81;100.00
30744;BME280;17486;46.738;7.622;2023-02-20T06:57:57;58933.41;;;-148.81;100.00
30744;BME280;17486;46.738;7.622;2023-02-20T07:00:23;58933.41;;;-148.81;100.00
30744;BME280;17486;46.738;7.622;2023-02-20T07:02:49;58933.41;;;-148.81;100.00
30744;BME280;17486;46.738;7.622;2023-02-20T07:05:14;58933.41;;;-148.81;100.00
30744;BME280;17486;46.738;7.622;2023-02-20T07:07:40;58933.41;;;-148.81;100.00
30744;BME280;17486;46.738;7.622;2023-02-20T07:10:05;58933.41;;;-148.81;100.00
30744;BME280;17486;46.738;7.622;2023-02-20T07:12:31;58933.41;;;-148.81;100.00
30744;BME280;17486;46.738;7.622;2023-02-20T07:14:58;58933.41;;;-148.81;100.00
30744;BME280;17486;46.738;7.622;2023-02-20T07:17:23;58933.41;;;-148.81;100.00
30744;BME280;17486;46.738;7.622;2023-02-20T07:19:49;58933.41;;;-148.81;100.00
30744;BME280;17486;46.738;7.622;2023-02-20T07:22:15;58933.41;;;-148.81;100.00
30744;BME280;17486;46.738;7.622;2023-02-20T07:24:41;58933.41;;;-148.81;100.00
30744;BME280;17486;46.738;7.622;2023-02-20T07:27:07;58933.41;;;-148.81;100.00
30744;BME280;17486;46.738;7.622;2023-02-20T07:29:37;58933.41;;;-148.81;100.00
30744;BME280;17486;46.738;7.622;2023-02-20T07:32:05;58933.41;;;-148.81;100.00
30744;BME280;17486;46.738;7.622;2023-02-20T07:34:32;58933.41;;;-148.81;100.00
30744;BME280;17486;46.738;7.622;2023-02-20T07:36:58;58933.41;;;-148.81;100.00
30744;BME280;17486;46.738;7.622;2023-02-20T07:39:23;58933.41;;;-148.81;100.00
30744;BME280;17486;46.738;7.622;2023-02-20T07:41:50;58933.41;;;-148.81;100.00
30744;BME280;17486;46.738;7.622;2023-02-20T07:44:16;58933.41;;;-148.81;100.00
30744;BME280;17486;46.738;7.622;2023-02-20T07:46:41;58933.41;;;-148.81;100.00
30744;BME280;17486;46.738;7.622;2023-02-20T07:49:07;58933.41;;;-148.81;100.00
30744;BME280;17486;46.738;7.622;2023-02-20T07:51:32;58933.41;;;-148.81;100.00
30744;BME280;17486;46.738;7.622;2023-02-20T07:53:58;58933.41;;;-148.81;100.00
30744;BME280;17486;46.738;7.622;2023-02-20T07:56:23;58933.41;;;-148.81;100.00
30744;BME280;17486;46.738;7.622;2023-02-20T07:58:49;58933.41;;;-148.81;100.00
30744;BME280;17486;46.738;7.622;2023-02-20T08:01:14;58933.41;;;-148.81;100.00
30744;BME280;17486;46.738;7.622;2023-02-20T08:03:40;58933.41;;;-148.81;100.00
30744;BME280;17486;46.738;7.622;2023-02-20T08:06:06;58933.41;;;-148.81;100.00
30744;BME280;17486;46.738;7.622;2023-02-20T08:08:31;58933.41;;;-148.81;100.00
30744;BME280;17486;46.738;7.622;2023-02-20T08:10:57;58933.41;;;-148.81;100.00
30744;BME280;17486;46.738;7.622;2023-02-20T08:13:36;96306.47;;;6.42;59.11
30744;BME280;17486;46.738;7.622;2023-02-20T08:16:02;96314.03;;;6.55;59.20
30744;BME280;17486;46.738;7.622;2023-02-20T08:18:27;96331.16;;;6.62;58.79
30744;BME280;17486;46.738;7.622;2023-02-20T08:20:52;96325.88;;;6.68;58.60
30744;BME280;17486;46.738;7.622;2023-02-20T08:23:21;96308.69;;;6.66;58.92
30744;BME280;17486;46.738;7.622;2023-02-20T08:25:47;96329.00;;;6.87;59.23
30744;BME280;17486;46.738;7.622;2023-02-20T08:28:13;96287.84;;;6.73;58.81
30744;BME280;17486;46.738;7.622;2023-02-20T08:30:39;96325.28;;;7.02;58.96
30744;BME280;17486;46.738;7.622;2023-02-20T08:33:04;96302.16;;;6.94;58.77
30744;BME280;17486;46.738;7.622;2023-02-20T08:35:33;96324.94;;;7.21;58.62
30744;BME280;17486;46.738;7.622;2023-02-20T08:38:00;96323.06;;;7.29;58.31
30744;BME280;17486;46.738;7.622;2023-02-20T08:40:26;96299.09;;;7.21;58.29
30744;BME280;17486;46.738;7.622;2023-02-20T08:42:51;96324.47;;;7.45;57.85
30744;BME280;17486;46.738;7.622;2023-02-20T08:45:17;96297.00;;;7.38;58.04
30744;BME280;17486;46.738;7.622;2023-02-20T08:47:42;96332.63;;;7.69;58.28
30744;BME280;17486;46.738;7.622;2023-02-20T08:50:08;96326.38;;;7.78;58.17
30744;BME280;17486;46.738;7.622;2023-02-20T08:52:33;96304.13;;;7.71;58.07
30744;BME280;17486;46.738;7.622;2023-02-20T08:54:58;96295.31;;;7.79;57.80
30744;BME280;17486;46.738;7.622;2023-02-20T08:57:24;96317.38;;;7.96;58.20
30744;BME280;17486;46.738;7.622;2023-02-20T08:59:49;96340.06;;;8.24;57.19
30744;BME280;17486;46.738;7.622;2023-02-20T09:02:21;96292.00;;;8.10;57.53
30744;BME280;17486;46.738;7.622;2023-02-20T09:04:48;96304.44;;;8.34;57.22
30744;BME280;17486;46.738;7.622;2023-02-20T09:07:14;96299.97;;;8.40;56.78
30744;BME280;17486;46.738;7.622;2023-02-20T09:09:40;96336.53;;;8.66;56.48
30744;BME280;17486;46.738;7.622;2023-02-20T09:12:06;96317.41;;;8.71;56.16
30744;BME280;17486;46.738;7.622;2023-02-20T09:14:31;96287.16;;;8.70;56.74
30744;BME280;17486;46.738;7.622;2023-02-20T09:16:57;96291.97;;;8.86;56.09
30744;BME280;17486;46.738;7.622;2023-02-20T09:19:22;96295.03;;;9.00;56.15
30744;BME280;17486;46.738;7.622;2023-02-20T09:21:49;96316.25;;;9.16;55.02
30744;BME280;17486;46.738;7.622;2023-02-20T09:24:15;96275.03;;;9.05;55.06
30744;BME280;17486;46.738;7.622;2023-02-20T09:26:40;96323.41;;;9.39;55.57
30744;BME280;17486;46.738;7.622;2023-02-20T09:29:05;96322.03;;;9.57;55.24
30744;BME280;17486;46.738;7.622;2023-02-20T09:31:31;96314.03;;;9.65;54.29
30744;BME280;17486;46.738;7.622;2023-02-20T09:33:56;96293.50;;;9.86;54.16
30744;BME280;17486;46.738;7.622;2023-02-20T09:36:22;96293.84;;;10.03;54.66
30744;BME280;17486;46.738;7.622;2023-02-20T09:38:47;96261.72;;;10.06;54.61
30744;BME280;17486;46.738;7.622;2023-02-20T09:41:33;96293.47;;;10.45;54.14
30744;BME280;17486;46.738;7.622;2023-02-20T09:46:43;96292.97;;;10.86;52.76
30744;BME280;17486;46.738;7.622;2023-02-20T09:49:13;96261.31;;;10.99;52.50
30744;BME280;17486;46.738;7.622;2023-02-20T09:51:48;96254.56;;;11.18;51.77
30744;BME280;17486;46.738;7.622;2023-02-20T09:54:29;96241.78;;;11.36;50.39
30744;BME280;17486;46.738;7.622;2023-02-20T09:57:00;96232.00;;;11.42;50.04
30744;BME280;17486;46.738;7.622;2023-02-20T09:59:31;96226.88;;;11.39;48.62
30744;BME280;17486;46.738;7.622;2023-02-20T10:02:01;96258.25;;;11.60;49.48
30744;BME280;17486;46.738;7.622;2023-02-20T10:04:45;96249.34;;;11.66;49.98
30744;BME280;17486;46.738;7.622;2023-02-20T10:07:20;96235.13;;;11.74;49.87
30744;BME280;17486;46.738;7.622;2023-02-20T10:09:47;96233.75;;;11.88;49.12
30744;BME280;17486;46.738;7.622;2023-02-20T10:20:46;96243.38;;;12.52;50.24
30744;BME280;17486;46.738;7.622;2023-02-20T10:23:00;96211.47;;;12.46;49.22
30744;BME280;17486;46.738;7.622;2023-02-20T10:25:30;96236.31;;;12.76;49.11
30744;BME280;17486;46.738;7.622;2023-02-20T10:28:08;96222.53;;;12.93;49.27
30744;BME280;17486;46.738;7.622;2023-02-20T10:30:38;96224.59;;;13.06;48.20
30744;BME280;17486;46.738;7.622;2023-02-20T10:35:54;96221.97;;;13.26;47.20
30744;BME280;17486;46.738;7.622;2023-02-20T10:38:25;96217.22;;;13.36;46.98
30744;BME280;17486;46.738;7.622;2023-02-20T10:47:03;96206.97;;;13.70;46.27
30744;BME280;17486;46.738;7.622;2023-02-20T10:49:34;96213.47;;;13.80;45.75
30744;BME280;17486;46.738;7.622;2023-02-20T10:52:06;96192.38;;;13.83;45.62
30744;BME280;17486;46.738;7.622;2023-02-20T10:54:40;96204.13;;;13.93;44.93
30744;BME280;17486;46.738;7.622;2023-02-20T10:57:24;96178.31;;;13.86;45.25
30744;BME280;17486;46.738;7.622;2023-02-20T11:00:08;96161.66;;;13.88;44.27
30744;BME280;17486;46.738;7.622;2023-02-20T11:02:39;96201.03;;;14.22;43.75
30744;BME280;17486;46.738;7.622;2023-02-20T11:05:17;96190.91;;;14.33;43.49
30744;BME280;17486;46.738;7.622;2023-02-20T11:07:43;96189.66;;;14.40;43.16
30744;BME280;17486;46.738;7.622;2023-02-20T11:10:09;96194.88;;;14.58;43.50
30744;BME280;17486;46.738;7.622;2023-02-20T11:12:39;96193.00;;;14.79;42.42
30744;BME280;17486;46.738;7.622;2023-02-20T11:15:12;96171.88;;;14.82;42.28
30744;BME280;17486;46.738;7.622;2023-02-20T11:17:39;96159.53;;;15.02;42.51
30744;BME280;17486;46.738;7.622;2023-02-20T11:22:58;96148.59;;;15.43;42.14
30744;BME280;17486;46.738;7.622;2023-02-20T11:25:30;96144.44;;;15.55;41.62
30744;BME280;17486;46.738;7.622;2023-02-20T11:28:23;96166.19;;;15.89;41.93
30744;BME280;17486;46.738;7.622;2023-02-20T11:30:59;96172.97;;;16.09;40.64
30744;BME280;17486;46.738;7.622;2023-02-20T11:33:29;96163.22;;;16.27;40.54
30744;BME280;17486;46.738;7.622;2023-02-20T11:35:56;96132.78;;;16.23;39.94
30744;BME280;17486;46.738;7.622;2023-02-20T11:45:49;96145.13;;;16.37;39.41
30744;BME280;17486;46.738;7.622;2023-02-20T11:48:19;96125.94;;;16.51;39.18
30744;BME280;17486;46.738;7.622;2023-02-20T11:50:50;96122.13;;;16.71;38.59
30744;BME280;17486;46.738;7.622;2023-02-20T11:53:24;96108.34;;;16.82;37.50
30744;BME280;17486;46.738;7.622;2023-02-20T11:56:11;96138.72;;;16.86;37.62
30744;BME280;17486;46.738;7.622;2023-02-20T11:58:38;96101.56;;;16.63;37.82
30744;BME280;17486;46.738;7.622;2023-02-20T12:01:05;96119.22;;;16.76;37.93
30744;BME280;17486;46.738;7.622;2023-02-20T12:03:33;96115.47;;;16.80;37.91
30744;BME280;17486;46.738;7.622;2023-02-20T12:06:36;96123.19;;;16.97;37.69
30744;BME280;17486;46.738;7.622;2023-02-20T12:08:52;96073.16;;;17.13;37.95
30744;BME280;17486;46.738;7.622;2023-02-20T12:11:20;96063.66;;;17.25;37.08
30744;BME280;17486;46.738;7.622;2023-02-20T12:13:48;96087.25;;;17.54;36.56
30744;BME280;17486;46.738;7.622;2023-02-20T12:26:51;96045.31;;;17.65;37.47
30744;BME280;17486;46.738;7.622;2023-02-20T12:29:27;96041.47;;;17.84;36.38
30744;BME280;17486;46.738;7.622;2023-02-20T12:34:59;96059.81;;;18.26;35.81
30744;BME280;17486;46.738;7.622;2023-02-20T12:37:54;96048.03;;;18.44;35.92
30744;BME280;17486;46.738;7.622;2023-02-20T12:40:37;96032.47;;;18.54;35.38
30744;BME280;17486;46.738;7.622;2023-02-20T12:46:07;95973.66;;;18.40;35.06
30744;BME280;17486;46.738;7.622;2023-02-20T12:51:42;96037.09;;;18.63;34.56
30744;BME280;17486;46.738;7.622;2023-02-20T12:57:15;96025.50;;;18.53;34.62
30744;BME280;17486;46.738;7.622;2023-02-20T13:00:07;96005.34;;;18.26;34.43
30744;BME280;17486;46.738;7.622;2023-02-20T13:02:49;95992.19;;;18.26;35.12
30744;BME280;17486;46.738;7.622;2023-02-20T13:05:22;95995.47;;;18.55;34.85
30744;BME280;17486;46.738;7.622;2023-02-20T13:07:56;96015.38;;;18.72;34.30
30744;BME280;17486;46.738;7.622;2023-02-20T13:10:51;95972.91;;;18.64;34.22
30744;BME280;17486;46.738;7.622;2023-02-20T13:13:17;95973.91;;;18.75;34.19
30744;BME280;17486;46.738;7.622;2023-02-20T13:16:00;95971.00;;;18.66;33.79
30744;BME280;17486;46.738;7.622;2023-02-20T13:21:32;95962.19;;;19.04;33.94
30744;BME280;17486;46.738;7.622;2023-02-20T13:26:58;95976.06;;;19.79;33.18
30744;BME280;17486;46.738;7.622;2023-02-20T13:29:35;95962.13;;;20.01;32.77
30744;BME280;17486;46.738;7.622;2023-02-20T13:32:21;95967.22;;;20.27;32.12
30744;BME280;17486;46.738;7.622;2023-02-20T13:34:48;95959.44;;;20.48;31.62
30744;BME280;17486;46.738;7.622;2023-02-20T13:40:14;95953.06;;;20.40;31.17
30744;BME280;17486;46.738;7.622;2023-02-20T13:42:43;95938.66;;;20.32;32.65
30744;BME280;17486;46.738;7.622;2023-02-20T13:45:39;95947.53;;;20.43;33.14
30744;BME280;17486;46.738;7.622;2023-02-20T13:56:16;95943.19;;;20.64;31.96
30744;BME280;17486;46.738;7.622;2023-02-20T13:58:43;95933.84;;;20.49;31.58
30744;BME280;17486;46.738;7.622;2023-02-20T14:01:09;95933.84;;;20.49;32.06
30744;BME280;17486;46.738;7.622;2023-02-20T14:03:34;95926.16;;;20.57;31.76
30744;BME280;17486;46.738;7.622;2023-02-20T14:06:09;95905.00;;;20.68;31.86
30744;BME280;17486;46.738;7.622;2023-02-20T14:08:37;95895.84;;;20.95;30.90
30744;BME280;17486;46.738;7.622;2023-02-20T14:11:15;95902.25;;;21.25;30.92
30744;BME280;17486;46.738;7.622;2023-02-20T14:13:49;95911.88;;;21.26;29.86
30744;BME280;17486;46.738;7.622;2023-02-20T14:18:46;95886.72;;;20.88;30.85
30744;BME280;17486;46.738;7.622;2023-02-20T14:21:17;95895.41;;;21.23;30.92
30744;BME280;17486;46.738;7.622;2023-02-20T14:23:44;95880.16;;;21.15;30.65
30744;BME280;17486;46.738;7.622;2023-02-20T14:28:52;95862.97;;;20.77;30.53
30744;BME280;17486;46.738;7.622;2023-02-20T14:31:24;95889.16;;;20.80;31.23
30744;BME280;17486;46.738;7.622;2023-02-20T14:33:50;95887.47;;;20.79;31.30
30744;BME280;17486;46.738;7.622;2023-02-20T14:41:31;95882.66;;;20.50;31.48
30744;BME280;17486;46.738;7.622;2023-02-20T14:44:01;95844.63;;;20.30;31.15